Time;durP1;ratioP1;P1;durP2;ratioP2;P2;SDS_P1;SDS_P2;PMS_P1;PMS_P2;Temp;Humidity;BMP_temperature;BMP_pressure;BME280_temperature;BME280_humidity;BME280_pressure;Samples;Min_cycle;Max_cycle;Signal;HPM_P1;HPM_P2
2021/08/25 00:00:28;;;;;;;1999.90;999.90;;;14.60;99.90;;;;;;5105075;28;20452;-85
2021/08/25 00:02:55;;;;;;;1999.90;999.90;;;14.60;99.90;;;;;;5102172;28;20452;-85
2021/08/25 00:05:21;;;;;;;1999.90;999.90;;;14.50;99.90;;;;;;5102430;28;20459;-85
2021/08/25 00:07:48;;;;;;;1999.90;999.90;;;14.50;99.90;;;;;;5111205;28;20496;-86
2021/08/25 00:10:16;;;;;;;1999.90;999.90;;;14.50;99.90;;;;;;5114086;28;20465;-85
2021/08/25 00:12:44;;;;;;;1999.90;999.90;;;14.50;99.90;;;;;;5101080;28;20451;-85
2021/08/25 00:15:11;;;;;;;1999.90;999.90;;;14.40;99.90;;;;;;5093238;28;20514;-85
2021/08/25 00:17:38;;;;;;;1999.90;999.90;;;14.40;99.90;;;;;;5098115;28;20506;-86
2021/08/25 00:20:06;;;;;;;1999.90;999.90;;;14.40;99.90;;;;;;5105219;28;20517;-85
2021/08/25 00:22:33;;;;;;;1999.90;999.90;;;14.40;99.90;;;;;;5093424;28;20442;-85
2021/08/25 00:25:00;;;;;;;1999.90;999.90;;;14.40;99.90;;;;;;5109701;28;20509;-86
2021/08/25 00:27:27;;;;;;;1999.90;999.90;;;14.30;99.90;;;;;;5096719;28;20460;-85
2021/08/25 00:29:55;;;;;;;1999.90;999.90;;;14.30;99.90;;;;;;5107105;28;20439;-84
2021/08/25 00:32:22;;;;;;;1999.90;999.90;;;14.30;99.90;;;;;;5104216;28;20469;-85
2021/08/25 00:34:49;;;;;;;1999.90;999.90;;;14.20;99.90;;;;;;5100548;28;20538;-85
2021/08/25 00:37:15;;;;;;;1999.90;999.90;;;14.20;99.90;;;;;;5110953;28;20549;-86
2021/08/25 00:39:42;;;;;;;1999.90;999.90;;;14.20;99.90;;;;;;5092856;28;20723;-86
2021/08/25 00:42:09;;;;;;;1999.90;999.90;;;14.10;99.90;;;;;;5092709;28;20521;-84
2021/08/25 00:44:36;;;;;;;1999.90;999.90;;;14.10;99.90;;;;;;5092858;28;20540;-86
2021/08/25 00:47:05;;;;;;;1999.90;999.90;;;14.10;99.90;;;;;;5092567;28;20751;-86
2021/08/25 00:49:32;;;;;;;1999.90;999.90;;;14.10;99.90;;;;;;5101445;28;20468;-87
2021/08/25 00:51:58;;;;;;;1999.90;999.90;;;14.10;99.90;;;;;;5103514;28;20525;-85
2021/08/25 00:54:26;;;;;;;1999.90;999.90;;;14.00;99.90;;;;;;5099992;28;20541;-85
2021/08/25 00:56:53;;;;;;;1999.90;999.90;;;13.90;99.90;;;;;;5102118;28;20489;-85
2021/08/25 00:59:21;;;;;;;1999.90;999.90;;;13.90;99.90;;;;;;5099654;28;20460;-84
2021/08/25 01:01:58;;;;;;;1999.90;999.90;;;13.90;99.90;;;;;;5092066;28;20457;-85
2021/08/25 01:04:33;;;;;;;1999.90;999.90;;;13.80;99.90;;;;;;5091789;28;20537;-85
2021/08/25 01:07:00;;;;;;;1999.90;999.90;;;13.80;99.90;;;;;;5091546;28;20544;-86
2021/08/25 01:09:27;;;;;;;1999.90;999.90;;;13.80;99.90;;;;;;5091631;28;20449;-86
2021/08/25 01:11:57;;;;;;;1999.90;999.90;;;13.70;99.90;;;;;;5096274;28;20465;-86
2021/08/25 01:14:24;;;;;;;1999.90;999.90;;;13.70;99.90;;;;;;5099213;28;20437;-85
2021/08/25 01:16:53;;;;;;;1999.90;999.90;;;13.70;99.90;;;;;;5101358;28;20560;-86
2021/08/25 01:19:20;;;;;;;1999.90;999.90;;;13.70;99.90;;;;;;5097758;28;20510;-84
2021/08/25 01:21:49;;;;;;;1999.90;999.90;;;13.60;99.90;;;;;;5099953;28;20446;-86
2021/08/25 01:24:18;;;;;;;1999.90;999.90;;;13.60;99.90;;;;;;5104473;28;20444;-85
2021/08/25 01:26:48;;;;;;;1999.90;999.90;;;13.60;99.90;;;;;;5111507;28;20462;-84
2021/08/25 01:29:24;;;;;;;1999.90;999.90;;;13.60;99.90;;;;;;5112453;28;20442;-86
2021/08/25 01:31:51;;;;;;;1999.90;999.90;;;13.60;99.90;;;;;;5112104;28;20500;-84
2021/08/25 01:34:18;;;;;;;1999.90;999.90;;;13.60;99.90;;;;;;5111624;28;20506;-86
2021/08/25 01:36:46;;;;;;;1999.90;999.90;;;13.50;99.90;;;;;;5111403;28;20499;-85
2021/08/25 01:39:13;;;;;;;1999.90;999.90;;;13.50;99.90;;;;;;5111799;28;21048;-84
2021/08/25 01:41:40;;;;;;;1999.90;999.90;;;13.50;99.90;;;;;;5110573;28;20485;-86
2021/08/25 01:44:07;;;;;;;1999.90;999.90;;;13.50;99.90;;;;;;5111827;28;20507;-86
2021/08/25 01:46:36;;;;;;;1999.90;999.90;;;13.50;99.90;;;;;;5110713;28;20529;-85
2021/08/25 01:49:07;;;;;;;1999.90;999.90;;;13.50;99.90;;;;;;5111356;28;20505;-85
2021/08/25 01:51:34;;;;;;;1999.90;999.90;;;13.50;99.90;;;;;;5110550;28;20455;-84
2021/08/25 01:54:02;;;;;;;1999.90;999.90;;;13.50;99.90;;;;;;5110788;28;20457;-86
2021/08/25 01:56:29;;;;;;;1999.90;999.90;;;13.50;99.90;;;;;;5109668;28;20583;-86
2021/08/25 01:58:57;;;;;;;1999.90;999.90;;;13.40;99.90;;;;;;5110726;28;20454;-85
2021/08/25 02:01:25;;;;;;;1999.90;999.90;;;13.40;99.90;;;;;;5110827;28;20451;-86
2021/08/25 02:03:53;;;;;;;1999.90;999.90;;;13.40;99.90;;;;;;5110946;28;20897;-85
2021/08/25 02:06:20;;;;;;;1999.90;999.90;;;13.40;99.90;;;;;;5099762;28;20561;-85
2021/08/25 02:08:47;;;;;;;1999.90;999.90;;;13.40;99.90;;;;;;5100669;28;20559;-85
2021/08/25 02:11:14;;;;;;;1999.90;999.90;;;13.40;99.90;;;;;;5103445;28;20457;-85
2021/08/25 02:13:40;;;;;;;1999.90;999.90;;;13.40;99.90;;;;;;5094284;28;20453;-85
2021/08/25 02:16:07;;;;;;;1999.90;999.90;;;13.40;99.90;;;;;;5089780;28;20473;-87
2021/08/25 02:18:34;;;;;;;1999.90;999.90;;;13.30;99.90;;;;;;5090334;28;20549;-85
2021/08/25 02:21:02;;;;;;;1999.90;999.90;;;13.30;99.90;;;;;;5089892;28;20452;-85
2021/08/25 02:23:29;;;;;;;1999.90;999.90;;;13.20;99.90;;;;;;5089220;28;20520;-85
2021/08/25 02:25:56;;;;;;;1999.90;999.90;;;13.20;99.90;;;;;;5088924;28;20535;-87
2021/08/25 02:28:23;;;;;;;1999.90;999.90;;;13.20;99.90;;;;;;5089297;28;20524;-86
2021/08/25 02:30:49;;;;;;;1999.90;999.90;;;13.10;99.90;;;;;;5089628;28;20535;-85
2021/08/25 02:33:16;;;;;;;1999.90;999.90;;;13.10;99.90;;;;;;5090353;28;20519;-85
2021/08/25 02:35:43;;;;;;;1999.90;999.90;;;13.10;99.90;;;;;;5089294;28;20542;-84
2021/08/25 02:38:12;;;;;;;1999.90;999.90;;;13.10;99.90;;;;;;5089215;28;20494;-85
2021/08/25 02:40:39;;;;;;;1999.90;999.90;;;13.10;99.90;;;;;;5089538;28;20473;-86
2021/08/25 02:43:06;;;;;;;1999.90;999.90;;;13.20;99.90;;;;;;5089779;28;20454;-86
2021/08/25 02:45:34;;;;;;;1999.90;999.90;;;13.20;99.90;;;;;;5089596;28;20563;-86
2021/08/25 02:48:01;;;;;;;1999.90;999.90;;;13.20;99.90;;;;;;5089145;28;20439;-85
2021/08/25 02:50:27;;;;;;;1999.90;999.90;;;13.20;99.90;;;;;;5088757;28;20884;-85
2021/08/25 02:52:54;;;;;;;1999.90;999.90;;;13.10;99.90;;;;;;5088851;28;20542;-85
2021/08/25 02:55:22;;;;;;;1999.90;999.90;;;13.10;99.90;;;;;;5088532;28;20559;-85
2021/08/25 02:57:49;;;;;;;1999.90;999.90;;;13.10;99.90;;;;;;5087932;28;20497;-84
2021/08/25 03:00:16;;;;;;;1999.90;999.90;;;13.10;99.90;;;;;;5095557;28;20432;-85
2021/08/25 03:02:44;;;;;;;1999.90;999.90;;;13.10;99.90;;;;;;5096830;28;20515;-87
2021/08/25 03:05:11;;;;;;;1999.90;999.90;;;13.00;99.90;;;;;;5096258;28;20464;-86
2021/08/25 03:07:38;;;;;;;1999.90;999.90;;;13.00;99.90;;;;;;5096396;28;20506;-84
2021/08/25 03:10:06;;;;;;;1999.90;999.90;;;13.00;99.90;;;;;;5091314;28;20473;-84
2021/08/25 03:12:34;;;;;;;1999.90;999.90;;;13.00;99.90;;;;;;5091562;28;21070;-85
2021/08/25 03:15:01;;;;;;;1999.90;999.90;;;13.00;99.90;;;;;;5090594;28;20819;-86
2021/08/25 03:17:28;;;;;;;1999.90;999.90;;;12.90;99.90;;;;;;5089769;28;20507;-86
2021/08/25 03:20:26;;;;;;;1999.90;999.90;;;12.90;99.90;;;;;;5089577;28;20445;-86
2021/08/25 03:22:53;;;;;;;1999.90;999.90;;;12.80;99.90;;;;;;5089530;28;20445;-86
2021/08/25 03:25:20;;;;;;;1999.90;999.90;;;12.80;99.90;;;;;;5090008;28;20467;-85
2021/08/25 03:27:48;;;;;;;1999.90;999.90;;;12.70;99.90;;;;;;5090254;28;20483;-86
2021/08/25 03:30:15;;;;;;;1999.90;999.90;;;12.70;99.90;;;;;;5089778;28;20501;-87
2021/08/25 03:32:42;;;;;;;1999.90;999.90;;;12.70;99.90;;;;;;5090042;28;20485;-85
2021/08/25 03:35:09;;;;;;;1999.90;999.90;;;12.70;99.90;;;;;;5089702;28;20500;-85
2021/08/25 03:37:38;;;;;;;1999.90;999.90;;;12.60;99.90;;;;;;5089861;28;20490;-85
2021/08/25 03:40:07;;;;;;;1999.90;999.90;;;12.60;99.90;;;;;;5090842;28;20915;-85
2021/08/25 03:42:33;;;;;;;1999.90;999.90;;;12.70;99.90;;;;;;5090397;28;20444;-85
2021/08/25 03:45:02;;;;;;;1999.90;999.90;;;12.70;99.90;;;;;;5090036;28;20447;-85
2021/08/25 03:47:29;;;;;;;1999.90;999.90;;;12.60;99.90;;;;;;5089276;28;20478;-85
2021/08/25 03:49:56;;;;;;;1999.90;999.90;;;12.60;99.90;;;;;;5089734;28;20445;-85
2021/08/25 03:52:23;;;;;;;1999.90;999.90;;;12.60;99.90;;;;;;5090258;28;20459;-85
2021/08/25 03:54:50;;;;;;;1999.90;999.90;;;12.60;99.90;;;;;;5090578;28;20449;-87
2021/08/25 03:57:16;;;;;;;1999.90;999.90;;;12.60;99.90;;;;;;5089657;28;20547;-86
2021/08/25 03:59:43;;;;;;;1999.90;999.90;;;12.50;99.90;;;;;;5089547;28;20463;-85
2021/08/25 04:02:12;;;;;;;1999.90;999.90;;;12.60;99.90;;;;;;5089770;28;20479;-86
2021/08/25 04:04:38;;;;;;;1999.90;999.90;;;12.50;99.90;;;;;;5090153;28;20475;-88
2021/08/25 04:07:05;;;;;;;1999.90;999.90;;;12.50;99.90;;;;;;5089232;28;20489;-86
2021/08/25 04:09:32;;;;;;;1999.90;999.90;;;12.50;99.90;;;;;;5089222;28;20475;-84
2021/08/25 04:11:59;;;;;;;1999.90;999.90;;;12.50;99.90;;;;;;5089433;28;20464;-87
2021/08/25 04:14:25;;;;;;;1999.90;999.90;;;12.50;99.90;;;;;;5089481;28;20541;-86
2021/08/25 04:16:52;;;;;;;1999.90;999.90;;;12.50;99.90;;;;;;5089422;28;20520;-85
2021/08/25 04:19:20;;;;;;;1999.90;999.90;;;12.50;99.90;;;;;;5089136;28;20513;-86
2021/08/25 04:21:47;;;;;;;1999.90;999.90;;;12.40;99.90;;;;;;5089560;28;20447;-86
2021/08/25 04:24:14;;;;;;;1999.90;999.90;;;12.40;99.90;;;;;;5089953;28;20475;-85
2021/08/25 04:26:41;;;;;;;1999.90;999.90;;;12.40;99.90;;;;;;5089192;28;20535;-85
2021/08/25 04:29:08;;;;;;;1999.90;999.90;;;12.40;99.90;;;;;;5091697;28;20496;-87
2021/08/25 04:31:35;;;;;;;1999.90;999.90;;;12.40;99.90;;;;;;5092794;28;20470;-84
2021/08/25 04:34:01;;;;;;;1999.90;999.90;;;12.50;99.90;;;;;;5092925;28;20446;-86
2021/08/25 04:36:30;;;;;;;1999.90;999.90;;;12.50;99.90;;;;;;5091378;28;20533;-85
2021/08/25 04:38:56;;;;;;;1999.90;999.90;;;12.50;99.90;;;;;;5106124;28;20551;-84
2021/08/25 04:41:23;;;;;;;1999.90;999.90;;;12.50;99.90;;;;;;5110954;28;20521;-84
2021/08/25 04:43:50;;;;;;;1999.90;999.90;;;12.40;99.90;;;;;;5111708;28;20526;-86
2021/08/25 04:46:18;;;;;;;1999.90;999.90;;;12.40;99.90;;;;;;5130793;22;20509;-89
2021/08/25 04:48:45;;;;;;;1999.90;999.90;;;12.40;99.90;;;;;;5109627;28;20470;-86
2021/08/25 04:51:12;;;;;;;1999.90;999.90;;;12.40;99.90;;;;;;5110306;28;20485;-86
2021/08/25 04:53:41;;;;;;;1999.90;999.90;;;12.40;99.90;;;;;;5110187;28;20485;-86
2021/08/25 04:56:08;;;;;;;1999.90;999.90;;;12.50;99.90;;;;;;5109674;28;20497;-85
2021/08/25 04:58:35;;;;;;;1999.90;999.90;;;12.50;99.90;;;;;;5109780;28;20579;-86
2021/08/25 05:01:05;;;;;;;1999.90;999.90;;;12.40;99.90;;;;;;5108169;28;21080;-86
2021/08/25 05:03:32;;;;;;;1999.90;999.90;;;12.40;99.90;;;;;;5098207;28;20468;-87
2021/08/25 05:05:59;;;;;;;1999.90;999.90;;;12.50;99.90;;;;;;5088894;28;20435;-86
2021/08/25 05:08:27;;;;;;;1999.90;999.90;;;12.50;99.90;;;;;;5106205;28;20457;-86
2021/08/25 05:10:55;;;;;;;1999.90;999.90;;;12.50;99.90;;;;;;5106379;28;20884;-86
2021/08/25 05:13:22;;;;;;;1999.90;999.90;;;12.50;99.90;;;;;;5106976;28;20469;-86
2021/08/25 05:15:54;;;;;;;1999.90;999.90;;;12.50;99.90;;;;;;5110917;28;20466;-86
2021/08/25 05:18:29;;;;;;;1999.90;999.90;;;12.60;99.90;;;;;;5118268;28;20483;-87
2021/08/25 05:21:39;;;;;;;1999.90;999.90;;;12.60;99.90;;;;;;5117209;28;20468;-87
2021/08/25 05:24:40;;;;;;;;;;;;;;;;;;;;;
2021/08/25 05:27:44;;;;;;;1999.90;999.90;;;12.60;99.90;;;;;;5106640;28;20537;-87
2021/08/25 05:30:13;;;;;;;1999.90;999.90;;;12.70;99.90;;;;;;5098086;28;20446;-88
2021/08/25 05:32:40;;;;;;;1999.90;999.90;;;12.70;99.90;;;;;;5097926;28;20454;-89
2021/08/25 05:35:08;;;;;;;1999.90;999.90;;;12.80;99.90;;;;;;5097106;28;20492;-88
2021/08/25 05:37:35;;;;;;;1999.90;999.90;;;12.80;99.90;;;;;;5097371;28;20487;-85
2021/08/25 05:40:02;;;;;;;1999.90;999.90;;;12.90;99.90;;;;;;5098373;28;20984;-86
2021/08/25 05:42:29;;;;;;;1999.90;999.90;;;12.90;99.90;;;;;;5099132;28;20469;-87
2021/08/25 05:44:55;;;;;;;1999.90;999.90;;;12.90;99.90;;;;;;5097734;28;20544;-86
2021/08/25 05:47:24;;;;;;;1999.90;999.90;;;13.00;99.90;;;;;;5085622;28;20551;-86
2021/08/25 05:49:50;;;;;;;1999.90;999.90;;;13.00;99.90;;;;;;5085560;28;20538;-89
2021/08/25 05:52:17;;;;;;;1999.90;999.90;;;13.10;99.90;;;;;;5075363;28;20453;-90
2021/08/25 05:54:44;;;;;;;1999.90;999.90;;;13.10;99.90;;;;;;5083441;28;20522;-89
2021/08/25 05:57:11;;;;;;;1999.90;999.90;;;13.10;99.90;;;;;;5074464;28;20483;-89
2021/08/25 05:59:38;;;;;;;1999.90;999.90;;;13.20;99.90;;;;;;5081887;28;20451;-89
2021/08/25 06:02:05;;;;;;;1999.90;999.90;;;13.30;99.90;;;;;;5094712;28;20480;-89
2021/08/25 06:04:33;;;;;;;1999.90;999.90;;;13.40;99.90;;;;;;5095051;28;20972;-89
2021/08/25 06:07:00;;;;;;;1999.90;999.90;;;13.50;99.90;;;;;;5094297;28;20481;-90
2021/08/25 06:09:26;;;;;;;1999.90;999.90;;;13.60;99.90;;;;;;5094522;28;20455;-89
2021/08/25 06:11:53;;;;;;;1999.90;999.90;;;13.70;99.90;;;;;;5094684;28;20458;-89
2021/08/25 06:14:20;;;;;;;1999.90;999.90;;;13.70;99.90;;;;;;5094268;28;20460;-89
2021/08/25 06:16:47;;;;;;;1999.90;999.90;;;13.80;99.90;;;;;;5094737;28;20539;-90
2021/08/25 06:19:14;;;;;;;1999.90;999.90;;;13.90;99.90;;;;;;5092352;28;20497;-89
2021/08/25 06:21:46;;;;;;;1999.90;999.90;;;13.90;99.90;;;;;;5078992;28;20794;-89
2021/08/25 06:24:14;;;;;;;1999.90;999.90;;;14.00;99.90;;;;;;5094349;28;20851;-89
2021/08/25 06:26:41;;;;;;;1999.90;999.90;;;14.10;99.90;;;;;;5090687;28;21028;-89
2021/08/25 06:29:07;;;;;;;1999.90;999.90;;;14.30;99.90;;;;;;5093289;28;20491;-89
2021/08/25 06:31:34;;;;;;;1999.90;999.90;;;14.30;99.90;;;;;;5093735;28;20486;-90
2021/08/25 06:34:04;;;;;;;1999.90;999.90;;;14.50;99.90;;;;;;5093894;28;20462;-89
2021/08/25 06:36:31;;;;;;;1999.90;999.90;;;14.50;99.90;;;;;;5094205;28;20475;-89
2021/08/25 06:39:00;;;;;;;1999.90;999.90;;;14.60;99.90;;;;;;5094686;28;20477;-90
2021/08/25 06:41:29;;;;;;;1999.90;999.90;;;14.70;99.90;;;;;;5084747;28;20894;-89
2021/08/25 06:43:55;;;;;;;1999.90;999.90;;;14.80;99.90;;;;;;5085323;28;20484;-90
2021/08/25 06:46:22;;;;;;;1999.90;999.90;;;14.80;99.90;;;;;;5107347;28;20464;-90
2021/08/25 06:48:49;;;;;;;1999.90;999.90;;;14.90;99.90;;;;;;5091392;28;20463;-90
2021/08/25 06:51:16;;;;;;;1999.90;999.90;;;15.00;99.90;;;;;;5075281;28;20451;-89
2021/08/25 06:53:43;;;;;;;1999.90;999.90;;;15.10;99.90;;;;;;5075527;28;20453;-90
2021/08/25 06:56:11;;;;;;;1999.90;999.90;;;15.10;99.90;;;;;;5092745;28;20474;-88
2021/08/25 06:58:38;;;;;;;1999.90;999.90;;;15.20;99.90;;;;;;5093970;28;20556;-89
2021/08/25 07:01:05;;;;;;;1999.90;999.90;;;15.20;99.90;;;;;;5067983;28;20457;-90
2021/08/25 07:03:32;;;;;;;1999.90;999.90;;;15.30;99.90;;;;;;5085908;28;20471;-90
2021/08/25 07:05:59;;;;;;;1999.90;999.90;;;15.30;99.90;;;;;;5073778;28;20436;-89
2021/08/25 07:08:26;;;;;;;1999.90;999.90;;;15.40;99.90;;;;;;5074766;28;20831;-90
2021/08/25 07:10:56;;;;;;;1999.90;999.90;;;15.60;99.90;;;;;;5077786;28;21186;-90
2021/08/25 07:13:24;;;;;;;1999.90;999.90;;;15.60;99.90;;;;;;5082207;28;20542;-89
2021/08/25 07:15:51;;;;;;;1999.90;999.90;;;15.70;99.90;;;;;;5090977;28;20504;-90
2021/08/25 07:18:18;;;;;;;1999.90;999.90;;;15.70;99.90;;;;;;5087494;28;20469;-89
2021/08/25 07:20:45;;;;;;;1999.90;999.90;;;15.80;99.90;;;;;;5081776;28;20610;-89
2021/08/25 07:23:12;;;;;;;1999.90;999.90;;;15.90;99.90;;;;;;5090472;28;20459;-90
2021/08/25 07:25:40;;;;;;;1999.90;999.90;;;16.00;99.90;;;;;;5082273;28;20463;-89
2021/08/25 07:28:07;;;;;;;1999.90;999.90;;;16.10;99.90;;;;;;5072963;28;20480;-89
2021/08/25 07:30:35;;;;;;;1999.90;999.90;;;16.20;99.90;;;;;;5074907;28;20452;-89
2021/08/25 07:33:02;;;;;;;1999.90;999.90;;;16.30;99.90;;;;;;5078498;28;20451;-89
2021/08/25 07:35:30;;;;;;;1999.90;999.90;;;16.30;99.90;;;;;;5075308;28;20495;-89
2021/08/25 07:37:57;;;;;;;1999.90;999.90;;;16.40;99.90;;;;;;5076177;28;20477;-88
2021/08/25 07:40:25;;;;;;;1999.90;999.90;;;16.50;99.90;;;;;;5073392;28;20530;-90
2021/08/25 07:42:52;;;;;;;1999.90;999.90;;;16.60;99.90;;;;;;5074707;28;20482;-89
2021/08/25 07:45:19;;;;;;;1999.90;999.90;;;16.70;99.90;;;;;;5074510;28;20454;-90
2021/08/25 07:47:47;;;;;;;1999.90;999.90;;;16.80;99.90;;;;;;5072564;28;20505;-90
2021/08/25 07:50:15;;;;;;;1999.90;999.90;;;16.90;99.90;;;;;;5074143;28;20485;-90
2021/08/25 07:52:42;;;;;;;1999.90;999.90;;;17.00;99.90;;;;;;5072860;28;20529;-89
2021/08/25 07:55:11;;;;;;;1999.90;999.90;;;17.10;99.90;;;;;;5073102;28;21010;-89
2021/08/25 07:57:38;;;;;;;1999.90;999.90;;;17.20;99.90;;;;;;5090041;28;20473;-89
2021/08/25 08:00:06;;;;;;;1999.90;999.90;;;17.30;99.90;;;;;;5097996;28;20454;-89
2021/08/25 08:02:35;;;;;;;1999.90;999.90;;;17.40;99.90;;;;;;5096398;28;20480;-89
2021/08/25 08:05:03;;;;;;;1999.90;999.90;;;17.50;99.90;;;;;;5094919;28;20486;-90
2021/08/25 08:07:30;;;;;;;1999.90;999.90;;;17.60;99.90;;;;;;5098456;28;20478;-89
2021/08/25 08:10:18;;;;;;;1999.90;999.90;;;17.70;99.90;;;;;;5089637;28;20971;-89
2021/08/25 08:12:45;;;;;;;1999.90;999.90;;;17.90;99.90;;;;;;5086960;28;20449;-89
2021/08/25 08:15:13;;;;;;;1999.90;999.90;;;18.00;99.90;;;;;;5089807;28;21138;-89
2021/08/25 08:17:44;;;;;;;1999.90;999.90;;;18.20;99.90;;;;;;5086651;28;20494;-89
2021/08/25 08:20:18;;;;;;;1999.90;999.90;;;18.40;99.90;;;;;;5079897;28;20451;-90
2021/08/25 08:22:45;;;;;;;1999.90;999.90;;;18.50;99.90;;;;;;5078596;28;20510;-89
2021/08/25 08:25:12;;;;;;;1999.90;999.90;;;18.70;99.90;;;;;;5076104;28;20480;-90
2021/08/25 08:27:39;;;;;;;1999.90;999.90;;;18.80;99.90;;;;;;5075411;28;20563;-89
2021/08/25 08:30:08;;;;;;;1999.90;999.90;;;19.00;99.90;;;;;;5076029;28;20471;-89
2021/08/25 08:32:35;;;;;;;1999.90;999.90;;;19.20;99.90;;;;;;5075663;28;20449;-89
2021/08/25 08:35:02;;;;;;;1999.90;999.90;;;19.40;99.90;;;;;;5075949;28;20445;-89
2021/08/25 08:37:31;;;;;;;1999.90;999.90;;;19.60;99.90;;;;;;5075739;28;20528;-89
2021/08/25 08:39:57;;;;;;;1999.90;999.90;;;19.80;99.90;;;;;;5075792;28;20577;-89
2021/08/25 08:42:29;;;;;;;1999.90;999.90;;;20.00;99.90;;;;;;5076537;28;20461;-89
2021/08/25 08:44:57;;;;;;;1999.90;999.90;;;20.20;99.90;;;;;;5076527;28;20454;-90
2021/08/25 08:47:25;;;;;;;1999.90;999.90;;;20.40;99.90;;;;;;5079378;28;20478;-89
2021/08/25 08:49:53;;;;;;;1999.90;999.90;;;20.40;99.90;;;;;;5081367;28;20511;-90
2021/08/25 08:52:22;;;;;;;1999.90;999.90;;;20.60;99.90;;;;;;5081804;28;20454;-88
2021/08/25 08:54:53;;;;;;;1999.90;999.90;;;20.80;99.90;;;;;;5081324;28;20995;-90
2021/08/25 08:57:20;;;;;;;1999.90;999.90;;;21.00;99.90;;;;;;5088878;28;20479;-90
2021/08/25 08:59:48;;;;;;;1999.90;999.90;;;21.20;99.90;;;;;;5102570;28;20484;-90
2021/08/25 09:02:42;;;;;;;1999.90;999.90;;;21.30;99.90;;;;;;5101684;28;20472;-90
2021/08/25 09:05:17;;;;;;;1999.90;999.90;;;21.40;99.90;;;;;;5105083;28;20463;-89
2021/08/25 09:07:49;;;;;;;1999.90;999.90;;;21.50;99.90;;;;;;5100386;28;20473;-90
2021/08/25 09:10:23;;;;;;;1999.90;999.90;;;21.90;99.90;;;;;;5099162;28;20495;-89
2021/08/25 09:12:51;;;;;;;1999.90;999.90;;;22.10;99.90;;;;;;5104902;28;20504;-88
2021/08/25 09:15:22;;;;;;;1999.90;999.90;;;22.40;99.90;;;;;;5092021;28;20474;-89
2021/08/25 09:17:59;;;;;;;1999.90;999.90;;;22.50;99.90;;;;;;5096074;28;20878;-90
2021/08/25 09:20:27;;;;;;;1999.90;999.90;;;22.70;99.90;;;;;;5082269;28;20931;-89
2021/08/25 09:23:22;;;;;;;1999.90;999.90;;;22.80;99.90;;;;;;5078589;28;20451;-89
2021/08/25 09:25:52;;;;;;;1999.90;999.90;;;23.00;99.90;;;;;;5039299;28;20469;-90
2021/08/25 09:28:20;;;;;;;1999.90;999.90;;;23.00;99.90;;;;;;5075223;28;20537;-89
2021/08/25 09:31:08;;;;;;;1999.90;999.90;;;23.10;99.90;;;;;;5079506;28;20507;-89
2021/08/25 09:33:37;;;;;;;1999.90;999.90;;;23.20;99.90;;;;;;5076011;28;20500;-89
2021/08/25 09:36:06;;;;;;;1999.90;999.90;;;23.60;99.90;;;;;;5081242;28;20459;-88
2021/08/25 09:38:34;;;;;;;1999.90;999.90;;;24.10;99.90;;;;;;5082842;28;20529;-89
2021/08/25 09:41:05;;;;;;;1999.90;999.90;;;24.70;99.90;;;;;;5076416;28;20455;-89
2021/08/25 09:43:36;;;;;;;1999.90;999.90;;;25.20;99.90;;;;;;5079376;28;20462;-89
2021/08/25 09:46:04;;;;;;;1999.90;999.90;;;25.50;99.90;;;;;;5074984;28;20482;-89
2021/08/25 09:48:36;;;;;;;1999.90;999.90;;;25.60;99.90;;;;;;5074344;28;20451;-88
2021/08/25 09:51:03;;;;;;;1999.90;999.90;;;25.80;99.90;;;;;;5073660;28;20470;-89
2021/08/25 09:53:30;;;;;;;1999.90;999.90;;;26.00;99.90;;;;;;5077904;28;20968;-89
2021/08/25 09:55:57;;;;;;;1999.90;999.90;;;26.00;99.90;;;;;;5074271;28;20462;-89
2021/08/25 09:58:26;;;;;;;1999.90;999.90;;;25.90;99.90;;;;;;5074167;28;20450;-89
2021/08/25 10:00:54;;;;;;;1999.90;999.90;;;25.80;99.90;;;;;;5073589;28;20533;-89
2021/08/25 10:03:22;;;;;;;1999.90;999.90;;;25.50;99.90;;;;;;5073569;28;20551;-88
2021/08/25 10:05:49;;;;;;;1999.90;999.90;;;25.40;99.90;;;;;;5084513;28;20837;-90
2021/08/25 10:08:17;;;;;;;1999.90;999.90;;;25.50;99.90;;;;;;5075170;28;20478;-89
2021/08/25 10:10:45;;;;;;;1999.90;999.90;;;;;;;;;;5086337;28;20545;-88
2021/08/25 10:13:12;;;;;;;1999.90;999.90;;;;;;;;;;5090162;28;20481;-89
2021/08/25 10:15:45;;;;;;;1999.90;999.90;;;;;;;;;;5083659;28;20924;-89
2021/08/25 10:18:28;;;;;;;1999.90;999.90;;;;;;;;;;5088150;28;20984;-89
2021/08/25 10:20:56;;;;;;;1999.90;999.90;;;;;;;;;;5073568;28;20931;-89
2021/08/25 10:23:38;;;;;;;1999.90;999.90;;;;;;;;;;5074371;28;20463;-90
2021/08/25 10:26:06;;;;;;;1999.90;999.90;;;;;;;;;;5092393;28;20557;-89
2021/08/25 10:28:48;;;;;;;1999.90;999.90;;;;;;;;;;5094000;28;21138;-89
2021/08/25 10:31:18;;;;;;;1999.90;999.90;;;;;;;;;;5093342;28;20441;-90
2021/08/25 10:34:01;;;;;;;1999.90;999.90;;;;;;;;;;5097838;28;20533;-88
2021/08/25 10:36:28;;;;;;;1999.90;999.90;;;;;;;;;;5087840;28;20493;-89
2021/08/25 10:38:56;;;;;;;1999.90;999.90;;;;;;;;;;5085851;28;20493;-90
2021/08/25 10:41:24;;;;;;;1999.90;999.90;;;;;;;;;;5090791;28;20496;-89
2021/08/25 10:43:54;;;;;;;1999.90;999.90;;;;;;;;;;5086497;28;20549;-90
2021/08/25 10:49:04;;;;;;;1999.90;999.90;;;;;;;;;;5074792;28;20867;-84
2021/08/25 10:51:36;;;;;;;1999.90;999.90;;;;;;;;;;5078659;28;20448;-85
2021/08/25 10:54:04;;;;;;;1999.90;999.90;;;;;;;;;;5064857;28;20447;-82
2021/08/25 10:56:33;;;;;;;1999.90;999.90;;;;;;;;;;5061828;28;20456;-82
2021/08/25 10:59:03;;;;;;;1999.90;999.90;;;;;;;;;;5051673;28;20521;-82
2021/08/25 11:01:30;;;;;;;1999.90;999.90;;;;;;;;;;5054872;28;20515;-82
2021/08/25 11:03:59;;;;;;;1999.90;999.90;;;;;;;;;;5059590;28;20451;-82
2021/08/25 11:06:34;;;;;;;1999.90;999.90;;;;;;;;;;5047881;28;20463;-82
2021/08/25 11:09:11;;;;;;;1999.90;999.90;;;;;;;;;;5054527;28;20444;-83
2021/08/25 11:11:39;;;;;;;1999.90;999.90;;;;;;;;;;5047608;28;20447;-82
2021/08/25 11:14:06;;;;;;;1999.90;999.90;;;;;;;;;;5050740;28;20456;-85
2021/08/25 11:16:33;;;;;;;1999.90;999.90;;;28.50;99.90;;;;;;5045538;28;20460;-82
2021/08/25 11:18:59;;;;;;;1999.90;999.90;;;28.60;99.30;;;;;;5059416;28;20478;-83
2021/08/25 11:21:26;;;;;;;1999.90;999.90;;;28.60;99.40;;;;;;5062437;28;20917;-82
2021/08/25 11:23:55;;;;;;;1999.90;999.90;;;28.60;99.90;;;;;;5063878;28;20449;-83
2021/08/25 11:26:22;;;;;;;1999.90;999.90;;;28.50;94.00;;;;;;5064429;28;20493;-84
2021/08/25 11:28:50;;;;;;;1999.90;999.90;;;28.50;99.90;;;;;;5070411;28;20818;-82
2021/08/25 11:31:26;;;;;;;1999.90;999.90;;;28.50;99.90;;;;;;5071571;28;20447;-82
2021/08/25 11:33:54;;;;;;;1999.90;999.90;;;28.40;99.90;;;;;;5080327;28;20446;-81
2021/08/25 11:36:21;;;;;;;1999.90;999.90;;;28.70;97.80;;;;;;5078634;28;20453;-82
2021/08/25 11:38:47;;;;;;;1999.90;999.90;;;28.70;94.10;;;;;;5076680;28;20455;-82
2021/08/25 11:41:16;;;;;;;1999.90;999.90;;;28.80;96.40;;;;;;5064656;28;20455;-83
2021/08/25 11:43:49;;;;;;;1999.90;999.90;;;28.80;98.60;;;;;;5075821;28;20444;-83
2021/08/25 11:46:24;;;;;;;1999.90;999.90;;;28.90;95.00;;;;;;5088592;28;20447;-82
2021/08/25 11:48:52;;;;;;;1999.90;999.90;;;28.90;98.00;;;;;;5082081;28;20458;-83
2021/08/25 11:51:19;;;;;;;1999.90;999.90;;;29.00;94.50;;;;;;5081714;28;20447;-82
2021/08/25 11:53:47;;;;;;;1999.90;999.90;;;29.00;94.10;;;;;;5072766;28;20458;-83
2021/08/25 11:56:15;;;;;;;1999.90;999.90;;;29.00;90.10;;;;;;5064109;28;20455;-81
2021/08/25 11:58:42;;;;;;;1999.90;999.90;;;29.00;91.90;;;;;;5075683;28;20455;-81
2021/08/25 12:01:21;;;;;;;1999.90;999.90;;;28.90;94.30;;;;;;5048482;28;20571;-81
2021/08/25 12:03:48;;;;;;;1999.90;999.90;;;29.30;97.40;;;;;;5068034;28;20454;-82
2021/08/25 12:06:16;;;;;;;1999.90;999.90;;;29.30;92.30;;;;;;5060191;28;20969;-81
2021/08/25 12:08:44;;;;;;;1999.90;999.90;;;29.40;93.70;;;;;;5062109;28;20443;-82
2021/08/25 12:11:12;;;;;;;1999.90;999.90;;;29.60;95.00;;;;;;5065597;28;20453;-83
2021/08/25 12:13:42;;;;;;;1999.90;999.90;;;30.10;97.70;;;;;;5061428;28;20535;-82
2021/08/25 12:16:21;;;;;;;1999.90;999.90;;;30.10;90.70;;;;;;5064176;28;20482;-82
2021/08/25 12:18:49;;;;;;;1999.90;999.90;;;30.20;91.50;;;;;;5061744;28;20435;-83